Flight Track Log - Related Links

Times and Time Zones

All times are in EDT time to prevent confusion due to time zone crossing. See the N779DB flight status page for this flight to view local times or setup timezone preferences in your user account.

Time Position Orientation Groundspeed Altitude Reporting Facility
EDT Latitude Longitude Course Direction KTS MPH feet Rate Location/Type
Fri 08:50:50 AM 42.6656 -83.3983 57° Northeast 131 151 1,500  Level Cleveland Center
Fri 08:51:51 AM 42.6853 -83.3569 57° Northeast 149 171 2,600 150 Climbing Cleveland Center
Fri 08:53:00 AM 42.7367 -83.3708 349° North  Level FlightAware Approximate
Fri 09:00:00 AM 43.0593 -83.3667 North  Level FlightAware Approximate
Fri 09:01:00 AM 43.0924 -83.4052 312° West  Level FlightAware Approximate
Fri 09:02:00 AM 43.1165 -83.4653 299° West  Level FlightAware Approximate
Fri 09:03:00 AM 43.1405 -83.5254 299° West  Level FlightAware Approximate
Fri 09:04:00 AM 43.1645 -83.5855 299° West  Level FlightAware Approximate
Fri 09:05:00 AM 43.1885 -83.6458 299° West  Level FlightAware Approximate
Fri 09:06:00 AM 43.2261 -83.6910 319° Northwest  Level Estimated
Fri 09:07:00 AM 43.2634 -83.7367 318° Northwest  Level FlightAware Approximate
Fri 09:08:00 AM 43.3008 -83.7825 318° Northwest  Level FlightAware Approximate
Fri 09:09:00 AM 43.3381 -83.8283 318° Northwest  Level FlightAware Approximate
Fri 09:10:00 AM 43.3754 -83.8741 318° Northwest  Level FlightAware Approximate
Fri 09:11:00 AM 43.4126 -83.9201 318° Northwest  Level FlightAware Approximate
Fri 09:12:00 AM 43.4499 -83.9660 318° Northwest  Level FlightAware Approximate
Fri 09:13:00 AM 43.4871 -84.0121 318° Northwest  Level FlightAware Approximate
Fri 09:14:00 AM 43.5243 -84.0582 318° Northwest  Level FlightAware Approximate
Fri 09:15:00 AM 43.5615 -84.1043 318° Northwest  Level FlightAware Approximate
Fri 09:16:00 AM 43.5987 -84.1505 318° Northwest  Level FlightAware Approximate
Fri 09:17:00 AM 43.6359 -84.1968 318° Northwest  Level FlightAware Approximate
Fri 09:18:00 AM 43.6730 -84.2431 318° Northwest  Level FlightAware Approximate
Fri 09:19:00 AM 43.7101 -84.2895 318° Northwest  Level FlightAware Approximate
Fri 09:20:00 AM 43.7472 -84.3359 318° Northwest  Level FlightAware Approximate
Fri 09:20:47 AM 43.7897 -84.4636 318° Northwest 180 207 6,000  Level Minneapolis Center
Fri 09:21:00 AM 43.7843 -84.3824 318° Northwest  Level FlightAware Approximate
Fri 09:21:49 AM 43.8208 -84.5172 309° West 179 206 6,000  Level Minneapolis Center
Fri 09:22:00 AM 43.8214 -84.4289 318° Northwest  Level FlightAware Approximate
Fri 09:22:51 AM 43.8519 -84.5519 321° Northwest 179 206 6,000  Level Minneapolis Center
Fri 09:23:00 AM 43.8584 -84.4756 318° Northwest  Level FlightAware Approximate
Fri 09:23:53 AM 43.8986 -84.6031 322° Northwest 179 206 6,000  Level Minneapolis Center
Fri 09:24:00 AM 43.8954 -84.5222 318° Northwest  Level FlightAware Approximate
Fri 09:24:54 AM 43.9367 -84.6478 320° Northwest 179 206 6,000  Level Minneapolis Center
Fri 09:25:00 AM 43.9324 -84.5689 318° Northwest  Level FlightAware Approximate
Fri 09:25:56 AM 43.9747 -84.6908 321° Northwest 179 206 6,000  Level Minneapolis Center
Fri 09:26:00 AM 43.9694 -84.6157 318° Northwest  Level FlightAware Approximate
Fri 09:26:58 AM 44.0142 -84.7347 321° Northwest 180 207 6,000  Level Minneapolis Center
Fri 09:27:59 AM 44.0603 -84.7867 321° Northwest 179 206 6,000  Level Minneapolis Center
Fri 09:29:01 AM 44.0983 -84.8311 320° Northwest 179 206 6,000  Level Minneapolis Center
Fri 09:30:15 AM 44.1367 -84.8761 320° Northwest 180 207 6,000  Level Minneapolis Center
Fri 09:31:16 AM 44.1825 -84.9303 320° Northwest 180 207 6,000  Level Minneapolis Center
Fri 09:32:18 AM 44.2217 -84.9750 321° Northwest 181 208 6,000 -48 Level Minneapolis Center
Fri 09:33:20 AM 44.2608 -85.0200 321° Northwest 182 209 5,900 -49 Descending Minneapolis Center
Fri 09:34:21 AM 44.2992 -85.0644 320° Northwest 181 208 5,900  Level Minneapolis Center
Fri 09:35:23 AM 44.3453 -85.1183 320° Northwest 181 208 5,900  Level Minneapolis Center
Fri 09:36:25 AM 44.3850 -85.1631 321° Northwest 182 209 5,900  Level Minneapolis Center
Fri 09:37:27 AM 44.4233 -85.2094 319° Northwest 182 209 5,900  Level Minneapolis Center
Fri 09:38:28 AM 44.4622 -85.2542 321° Northwest 182 209 5,900 -98 Level Minneapolis Center
Fri 09:39:30 AM 44.5011 -85.2997 320° Northwest 182 209 5,700 -581 Descending Minneapolis Center
Fri 09:40:32 AM 44.5442 -85.3497 320° Northwest 189 217 4,700 -1,016 Descending Minneapolis Center
Fri 09:41:34 AM 44.5914 -85.3989 323° Northwest 200 230 3,600 -927 Descending Minneapolis Center
Fri 09:42:35 AM 44.6500 -85.4528 327° Northwest 208 239 2,800 -683 Descending Minneapolis Center
Fri 09:43:37 AM 44.6931 -85.4858 331° Northwest 194 223 2,200 -629 Descending Minneapolis Center
Fri 09:44:39 AM 44.7294 -85.5228 324° Northwest 177 204 1,500 -387 Descending Minneapolis Center
Fri 09:45:41 AM 44.7639 -85.5594 323° Northwest 174 200 1,400 -97 Descending Minneapolis Center
Fri 09:47:00 AM 44.7333 -85.5667 325° Northwest  Level FlightAware Approximate

Login

Don't have an account? Register now (free) for customized features, flight alerts, and more!